sensor_id;sensor_type;location;lat;lon;timestamp;P1;durP1;ratioP1;P2;durP2;ratioP2
12784;SDS011;6456;42.680;23.260;2024-02-26T00:02:00;19.13;;;14.17;;
12784;SDS011;6456;42.680;23.260;2024-02-26T00:04:30;15.90;;;12.93;;
12784;SDS011;6456;42.680;23.260;2024-02-26T00:06:57;19.43;;;12.43;;
12784;SDS011;6456;42.680;23.260;2024-02-26T00:09:24;15.83;;;12.63;;
12784;SDS011;6456;42.680;23.260;2024-02-26T00:11:56;19.63;;;14.50;;
12784;SDS011;6456;42.680;23.260;2024-02-26T00:14:24;21.07;;;16.53;;
12784;SDS011;6456;42.680;23.260;2024-02-26T00:16:51;21.10;;;16.77;;
12784;SDS011;6456;42.680;23.260;2024-02-26T00:19:18;19.47;;;13.97;;
12784;SDS011;6456;42.680;23.260;2024-02-26T00:21:45;18.30;;;14.60;;
12784;SDS011;6456;42.680;23.260;2024-02-26T00:24:12;20.37;;;14.07;;
12784;SDS011;6456;42.680;23.260;2024-02-26T00:26:39;18.97;;;14.13;;
12784;SDS011;6456;42.680;23.260;2024-02-26T00:29:08;17.27;;;12.87;;
12784;SDS011;6456;42.680;23.260;2024-02-26T00:31:36;18.87;;;14.07;;
12784;SDS011;6456;42.680;23.260;2024-02-26T00:34:03;17.87;;;12.83;;
12784;SDS011;6456;42.680;23.260;2024-02-26T00:36:30;19.10;;;13.20;;
12784;SDS011;6456;42.680;23.260;2024-02-26T00:38:57;17.30;;;13.30;;
12784;SDS011;6456;42.680;23.260;2024-02-26T00:41:24;19.20;;;13.87;;
12784;SDS011;6456;42.680;23.260;2024-02-26T00:43:52;18.93;;;12.93;;
12784;SDS011;6456;42.680;23.260;2024-02-26T00:46:20;19.13;;;14.07;;
12784;SDS011;6456;42.680;23.260;2024-02-26T00:48:47;18.73;;;15.10;;
12784;SDS011;6456;42.680;23.260;2024-02-26T00:51:14;20.97;;;15.23;;
12784;SDS011;6456;42.680;23.260;2024-02-26T00:53:41;20.77;;;15.80;;
12784;SDS011;6456;42.680;23.260;2024-02-26T00:56:08;18.53;;;14.80;;
12784;SDS011;6456;42.680;23.260;2024-02-26T00:58:35;20.23;;;15.70;;
12784;SDS011;6456;42.680;23.260;2024-02-26T01:01:02;24.20;;;16.13;;
12784;SDS011;6456;42.680;23.260;2024-02-26T01:03:31;21.00;;;15.70;;
12784;SDS011;6456;42.680;23.260;2024-02-26T01:05:58;20.37;;;15.67;;
12784;SDS011;6456;42.680;23.260;2024-02-26T01:08:25;19.77;;;15.87;;
12784;SDS011;6456;42.680;23.260;2024-02-26T01:10:52;20.40;;;15.50;;
12784;SDS011;6456;42.680;23.260;2024-02-26T01:13:19;23.60;;;16.63;;
12784;SDS011;6456;42.680;23.260;2024-02-26T01:15:46;22.40;;;17.37;;
12784;SDS011;6456;42.680;23.260;2024-02-26T01:18:13;20.83;;;16.97;;
12784;SDS011;6456;42.680;23.260;2024-02-26T01:20:42;23.43;;;16.97;;
12784;SDS011;6456;42.680;23.260;2024-02-26T01:23:09;21.33;;;16.37;;
12784;SDS011;6456;42.680;23.260;2024-02-26T01:25:36;21.97;;;16.90;;
12784;SDS011;6456;42.680;23.260;2024-02-26T01:28:04;20.87;;;17.43;;
12784;SDS011;6456;42.680;23.260;2024-02-26T01:30:31;23.17;;;17.07;;
12784;SDS011;6456;42.680;23.260;2024-02-26T01:32:58;22.17;;;15.93;;
12784;SDS011;6456;42.680;23.260;2024-02-26T01:35:25;21.97;;;16.90;;
12784;SDS011;6456;42.680;23.260;2024-02-26T01:37:55;23.00;;;16.73;;
12784;SDS011;6456;42.680;23.260;2024-02-26T01:40:26;22.73;;;16.60;;
12784;SDS011;6456;42.680;23.260;2024-02-26T01:42:55;20.37;;;16.80;;
12784;SDS011;6456;42.680;23.260;2024-02-26T01:45:22;20.43;;;16.67;;
12784;SDS011;6456;42.680;23.260;2024-02-26T01:47:50;16.93;;;14.53;;
12784;SDS011;6456;42.680;23.260;2024-02-26T01:50:17;19.97;;;14.97;;
12784;SDS011;6456;42.680;23.260;2024-02-26T01:52:45;17.90;;;14.37;;
12784;SDS011;6456;42.680;23.260;2024-02-26T01:55:14;19.70;;;14.13;;
12784;SDS011;6456;42.680;23.260;2024-02-26T01:57:42;18.67;;;14.37;;
12784;SDS011;6456;42.680;23.260;2024-02-26T02:00:12;22.40;;;15.00;;
12784;SDS011;6456;42.680;23.260;2024-02-26T02:02:41;19.57;;;15.40;;
12784;SDS011;6456;42.680;23.260;2024-02-26T02:05:12;22.60;;;17.00;;
12784;SDS011;6456;42.680;23.260;2024-02-26T02:07:40;21.70;;;16.83;;
12784;SDS011;6456;42.680;23.260;2024-02-26T02:10:08;21.17;;;17.03;;
12784;SDS011;6456;42.680;23.260;2024-02-26T02:12:37;20.40;;;17.00;;
12784;SDS011;6456;42.680;23.260;2024-02-26T02:15:05;22.40;;;18.13;;
12784;SDS011;6456;42.680;23.260;2024-02-26T02:17:33;22.33;;;17.27;;
12784;SDS011;6456;42.680;23.260;2024-02-26T02:20:00;20.07;;;16.73;;
12784;SDS011;6456;42.680;23.260;2024-02-26T02:22:30;20.90;;;16.17;;
12784;SDS011;6456;42.680;23.260;2024-02-26T02:24:58;19.90;;;15.87;;
12784;SDS011;6456;42.680;23.260;2024-02-26T02:27:26;19.70;;;15.97;;
12784;SDS011;6456;42.680;23.260;2024-02-26T02:29:54;19.73;;;14.37;;
12784;SDS011;6456;42.680;23.260;2024-02-26T02:32:21;21.27;;;15.70;;
12784;SDS011;6456;42.680;23.260;2024-02-26T02:34:49;19.50;;;16.80;;
12784;SDS011;6456;42.680;23.260;2024-02-26T02:37:16;21.57;;;16.33;;
12784;SDS011;6456;42.680;23.260;2024-02-26T02:39:45;20.90;;;16.80;;
12784;SDS011;6456;42.680;23.260;2024-02-26T02:42:12;21.23;;;17.23;;
12784;SDS011;6456;42.680;23.260;2024-02-26T02:44:39;19.43;;;17.07;;
12784;SDS011;6456;42.680;23.260;2024-02-26T02:47:06;21.77;;;16.60;;
12784;SDS011;6456;42.680;23.260;2024-02-26T02:49:33;22.60;;;17.43;;
12784;SDS011;6456;42.680;23.260;2024-02-26T02:52:00;22.40;;;17.73;;
12784;SDS011;6456;42.680;23.260;2024-02-26T02:54:27;23.17;;;17.30;;
12784;SDS011;6456;42.680;23.260;2024-02-26T02:56:55;20.77;;;17.13;;
12784;SDS011;6456;42.680;23.260;2024-02-26T02:59:22;22.90;;;17.37;;
12784;SDS011;6456;42.680;23.260;2024-02-26T03:01:49;24.57;;;17.30;;
12784;SDS011;6456;42.680;23.260;2024-02-26T03:04:17;22.23;;;17.57;;
12784;SDS011;6456;42.680;23.260;2024-02-26T03:06:44;23.40;;;17.87;;
12784;SDS011;6456;42.680;23.260;2024-02-26T03:09:11;22.03;;;17.60;;
12784;SDS011;6456;42.680;23.260;2024-02-26T03:11:38;20.57;;;16.43;;
12784;SDS011;6456;42.680;23.260;2024-02-26T03:14:06;23.03;;;16.87;;
12784;SDS011;6456;42.680;23.260;2024-02-26T03:16:34;21.17;;;16.63;;
12784;SDS011;6456;42.680;23.260;2024-02-26T03:19:02;20.87;;;16.97;;
12784;SDS011;6456;42.680;23.260;2024-02-26T03:21:29;19.20;;;16.43;;
12784;SDS011;6456;42.680;23.260;2024-02-26T03:23:56;22.43;;;16.60;;
12784;SDS011;6456;42.680;23.260;2024-02-26T03:26:23;21.50;;;16.60;;
12784;SDS011;6456;42.680;23.260;2024-02-26T03:28:50;21.13;;;16.20;;
12784;SDS011;6456;42.680;23.260;2024-02-26T03:31:19;22.87;;;17.17;;
12784;SDS011;6456;42.680;23.260;2024-02-26T03:33:46;21.20;;;16.47;;
12784;SDS011;6456;42.680;23.260;2024-02-26T03:36:13;21.40;;;16.80;;
12784;SDS011;6456;42.680;23.260;2024-02-26T03:38:40;21.37;;;16.20;;
12784;SDS011;6456;42.680;23.260;2024-02-26T03:41:07;20.83;;;15.60;;
12784;SDS011;6456;42.680;23.260;2024-02-26T03:43:35;23.23;;;17.07;;
12784;SDS011;6456;42.680;23.260;2024-02-26T03:46:02;21.77;;;17.30;;
12784;SDS011;6456;42.680;23.260;2024-02-26T03:48:30;21.43;;;17.17;;
12784;SDS011;6456;42.680;23.260;2024-02-26T03:50:57;19.83;;;16.20;;
12784;SDS011;6456;42.680;23.260;2024-02-26T03:53:25;22.20;;;16.57;;
12784;SDS011;6456;42.680;23.260;2024-02-26T03:55:53;19.83;;;16.43;;
12784;SDS011;6456;42.680;23.260;2024-02-26T03:58:20;22.60;;;17.03;;
12784;SDS011;6456;42.680;23.260;2024-02-26T04:00:47;23.47;;;17.13;;
12784;SDS011;6456;42.680;23.260;2024-02-26T04:03:14;22.27;;;17.10;;
12784;SDS011;6456;42.680;23.260;2024-02-26T04:05:43;21.17;;;16.40;;
12784;SDS011;6456;42.680;23.260;2024-02-26T04:08:10;20.70;;;16.67;;
12784;SDS011;6456;42.680;23.260;2024-02-26T04:10:37;22.97;;;16.47;;
12784;SDS011;6456;42.680;23.260;2024-02-26T04:13:04;22.77;;;17.33;;
12784;SDS011;6456;42.680;23.260;2024-02-26T04:15:31;19.23;;;16.40;;
12784;SDS011;6456;42.680;23.260;2024-02-26T04:17:59;22.57;;;16.57;;
12784;SDS011;6456;42.680;23.260;2024-02-26T04:20:26;19.33;;;16.10;;
12784;SDS011;6456;42.680;23.260;2024-02-26T04:22:54;23.33;;;17.03;;
12784;SDS011;6456;42.680;23.260;2024-02-26T04:25:21;21.23;;;16.50;;
12784;SDS011;6456;42.680;23.260;2024-02-26T04:27:48;20.80;;;17.20;;
12784;SDS011;6456;42.680;23.260;2024-02-26T04:30:15;25.37;;;17.30;;
12784;SDS011;6456;42.680;23.260;2024-02-26T04:32:43;23.33;;;18.37;;
12784;SDS011;6456;42.680;23.260;2024-02-26T04:35:10;23.17;;;17.47;;
12784;SDS011;6456;42.680;23.260;2024-02-26T04:37:37;22.07;;;17.33;;
12784;SDS011;6456;42.680;23.260;2024-02-26T04:40:06;23.17;;;17.30;;
12784;SDS011;6456;42.680;23.260;2024-02-26T04:42:34;21.13;;;16.30;;
12784;SDS011;6456;42.680;23.260;2024-02-26T04:45:01;22.90;;;17.27;;
12784;SDS011;6456;42.680;23.260;2024-02-26T04:47:28;22.90;;;17.07;;
12784;SDS011;6456;42.680;23.260;2024-02-26T04:49:56;21.70;;;16.67;;
12784;SDS011;6456;42.680;23.260;2024-02-26T04:52:23;23.13;;;16.90;;
12784;SDS011;6456;42.680;23.260;2024-02-26T04:54:50;27.97;;;19.30;;
12784;SDS011;6456;42.680;23.260;2024-02-26T04:57:18;22.07;;;18.27;;
12784;SDS011;6456;42.680;23.260;2024-02-26T04:59:45;24.53;;;17.93;;
12784;SDS011;6456;42.680;23.260;2024-02-26T05:02:12;25.20;;;19.00;;
12784;SDS011;6456;42.680;23.260;2024-02-26T05:04:39;23.17;;;18.10;;
12784;SDS011;6456;42.680;23.260;2024-02-26T05:07:06;23.43;;;18.37;;
12784;SDS011;6456;42.680;23.260;2024-02-26T05:09:34;22.90;;;18.30;;
12784;SDS011;6456;42.680;23.260;2024-02-26T05:12:01;26.43;;;19.33;;
12784;SDS011;6456;42.680;23.260;2024-02-26T05:14:30;25.93;;;19.83;;
12784;SDS011;6456;42.680;23.260;2024-02-26T05:16:57;25.00;;;20.07;;
12784;SDS011;6456;42.680;23.260;2024-02-26T05:19:24;25.13;;;20.00;;
12784;SDS011;6456;42.680;23.260;2024-02-26T05:21:51;28.00;;;20.20;;
12784;SDS011;6456;42.680;23.260;2024-02-26T05:24:18;24.83;;;18.50;;
12784;SDS011;6456;42.680;23.260;2024-02-26T05:26:47;25.67;;;19.63;;
12784;SDS011;6456;42.680;23.260;2024-02-26T05:29:14;27.07;;;19.23;;
12784;SDS011;6456;42.680;23.260;2024-02-26T05:31:43;26.30;;;19.20;;
12784;SDS011;6456;42.680;23.260;2024-02-26T05:34:10;21.90;;;17.47;;
12784;SDS011;6456;42.680;23.260;2024-02-26T05:36:37;24.03;;;18.37;;
12784;SDS011;6456;42.680;23.260;2024-02-26T05:39:04;25.17;;;17.57;;
12784;SDS011;6456;42.680;23.260;2024-02-26T05:41:32;22.97;;;17.47;;
12784;SDS011;6456;42.680;23.260;2024-02-26T05:43:59;20.60;;;17.00;;
12784;SDS011;6456;42.680;23.260;2024-02-26T05:46:26;23.77;;;18.50;;
12784;SDS011;6456;42.680;23.260;2024-02-26T05:48:54;26.67;;;18.33;;
12784;SDS011;6456;42.680;23.260;2024-02-26T05:51:21;24.53;;;18.70;;
12784;SDS011;6456;42.680;23.260;2024-02-26T05:53:48;24.33;;;18.37;;
12784;SDS011;6456;42.680;23.260;2024-02-26T05:56:19;26.47;;;18.47;;
12784;SDS011;6456;42.680;23.260;2024-02-26T05:58:47;24.37;;;18.40;;
12784;SDS011;6456;42.680;23.260;2024-02-26T06:01:15;26.47;;;18.47;;
12784;SDS011;6456;42.680;23.260;2024-02-26T06:03:42;22.37;;;17.13;;
12784;SDS011;6456;42.680;23.260;2024-02-26T06:06:11;22.30;;;17.33;;
12784;SDS011;6456;42.680;23.260;2024-02-26T06:08:40;25.63;;;18.23;;
12784;SDS011;6456;42.680;23.260;2024-02-26T06:11:06;37.47;;;19.23;;
12784;SDS011;6456;42.680;23.260;2024-02-26T06:13:35;26.17;;;17.40;;
12784;SDS011;6456;42.680;23.260;2024-02-26T06:16:02;27.67;;;18.93;;
12784;SDS011;6456;42.680;23.260;2024-02-26T06:18:30;23.90;;;17.13;;
12784;SDS011;6456;42.680;23.260;2024-02-26T06:20:57;25.80;;;18.20;;
12784;SDS011;6456;42.680;23.260;2024-02-26T06:23:26;23.87;;;18.97;;
12784;SDS011;6456;42.680;23.260;2024-02-26T06:25:53;30.23;;;23.73;;
12784;SDS011;6456;42.680;23.260;2024-02-26T06:28:20;31.70;;;23.20;;
12784;SDS011;6456;42.680;23.260;2024-02-26T06:30:47;29.63;;;21.20;;
12784;SDS011;6456;42.680;23.260;2024-02-26T06:33:15;27.20;;;19.83;;
12784;SDS011;6456;42.680;23.260;2024-02-26T06:35:42;26.23;;;20.03;;
12784;SDS011;6456;42.680;23.260;2024-02-26T06:38:11;30.73;;;20.53;;
12784;SDS011;6456;42.680;23.260;2024-02-26T06:40:40;29.10;;;20.97;;
12784;SDS011;6456;42.680;23.260;2024-02-26T06:43:07;32.60;;;22.33;;
12784;SDS011;6456;42.680;23.260;2024-02-26T06:45:34;30.37;;;22.00;;
12784;SDS011;6456;42.680;23.260;2024-02-26T06:48:01;35.40;;;24.27;;
12784;SDS011;6456;42.680;23.260;2024-02-26T06:50:28;37.60;;;26.07;;
12784;SDS011;6456;42.680;23.260;2024-02-26T06:52:55;35.63;;;26.20;;
12784;SDS011;6456;42.680;23.260;2024-02-26T06:55:22;34.73;;;26.80;;
12784;SDS011;6456;42.680;23.260;2024-02-26T06:57:51;37.60;;;27.17;;
12784;SDS011;6456;42.680;23.260;2024-02-26T07:00:18;35.60;;;28.67;;
12784;SDS011;6456;42.680;23.260;2024-02-26T07:02:48;35.83;;;27.50;;
12784;SDS011;6456;42.680;23.260;2024-02-26T07:05:16;31.53;;;26.87;;
12784;SDS011;6456;42.680;23.260;2024-02-26T07:07:43;33.23;;;25.07;;
12784;SDS011;6456;42.680;23.260;2024-02-26T07:10:10;33.87;;;26.43;;
12784;SDS011;6456;42.680;23.260;2024-02-26T07:12:37;37.07;;;29.13;;
12784;SDS011;6456;42.680;23.260;2024-02-26T07:15:07;44.77;;;32.70;;
12784;SDS011;6456;42.680;23.260;2024-02-26T07:17:34;45.10;;;33.90;;
12784;SDS011;6456;42.680;23.260;2024-02-26T07:20:01;37.00;;;29.10;;
12784;SDS011;6456;42.680;23.260;2024-02-26T07:22:29;39.37;;;31.23;;
12784;SDS011;6456;42.680;23.260;2024-02-26T07:24:57;40.83;;;31.87;;
12784;SDS011;6456;42.680;23.260;2024-02-26T07:27:24;36.43;;;27.50;;
12784;SDS011;6456;42.680;23.260;2024-02-26T07:29:51;33.60;;;25.57;;
12784;SDS011;6456;42.680;23.260;2024-02-26T07:32:19;32.93;;;27.30;;
12784;SDS011;6456;42.680;23.260;2024-02-26T07:34:47;34.60;;;27.70;;
12784;SDS011;6456;42.680;23.260;2024-02-26T07:37:15;33.57;;;26.77;;
12784;SDS011;6456;42.680;23.260;2024-02-26T07:39:42;39.47;;;27.60;;
12784;SDS011;6456;42.680;23.260;2024-02-26T07:42:09;30.00;;;25.77;;
12784;SDS011;6456;42.680;23.260;2024-02-26T07:44:36;36.20;;;26.07;;
12784;SDS011;6456;42.680;23.260;2024-02-26T07:47:04;33.13;;;25.63;;
12784;SDS011;6456;42.680;23.260;2024-02-26T07:49:32;30.63;;;24.20;;
12784;SDS011;6456;42.680;23.260;2024-02-26T07:51:59;35.23;;;24.70;;
12784;SDS011;6456;42.680;23.260;2024-02-26T07:54:28;31.80;;;25.37;;
12784;SDS011;6456;42.680;23.260;2024-02-26T07:56:55;34.70;;;24.07;;
12784;SDS011;6456;42.680;23.260;2024-02-26T07:59:23;32.90;;;24.93;;
12784;SDS011;6456;42.680;23.260;2024-02-26T08:01:50;30.33;;;23.73;;
12784;SDS011;6456;42.680;23.260;2024-02-26T08:04:17;33.57;;;24.50;;
12784;SDS011;6456;42.680;23.260;2024-02-26T08:06:46;31.20;;;23.33;;
12784;SDS011;6456;42.680;23.260;2024-02-26T08:09:13;30.90;;;23.83;;
12784;SDS011;6456;42.680;23.260;2024-02-26T08:11:41;36.07;;;25.57;;
12784;SDS011;6456;42.680;23.260;2024-02-26T08:14:08;34.10;;;25.53;;
12784;SDS011;6456;42.680;23.260;2024-02-26T08:16:35;30.43;;;23.63;;
12784;SDS011;6456;42.680;23.260;2024-02-26T08:19:03;33.33;;;25.60;;
12784;SDS011;6456;42.680;23.260;2024-02-26T08:21:32;37.23;;;25.73;;
12784;SDS011;6456;42.680;23.260;2024-02-26T08:24:06;33.23;;;27.43;;
12784;SDS011;6456;42.680;23.260;2024-02-26T08:26:33;34.10;;;26.13;;
12784;SDS011;6456;42.680;23.260;2024-02-26T08:29:00;33.87;;;26.23;;
12784;SDS011;6456;42.680;23.260;2024-02-26T08:31:27;36.57;;;25.53;;
12784;SDS011;6456;42.680;23.260;2024-02-26T08:33:55;37.00;;;26.77;;
12784;SDS011;6456;42.680;23.260;2024-02-26T08:36:23;32.30;;;25.13;;
12784;SDS011;6456;42.680;23.260;2024-02-26T08:38:53;36.23;;;24.07;;
12784;SDS011;6456;42.680;23.260;2024-02-26T08:41:22;30.67;;;24.47;;
12784;SDS011;6456;42.680;23.260;2024-02-26T08:43:49;29.03;;;23.33;;
12784;SDS011;6456;42.680;23.260;2024-02-26T08:46:16;30.40;;;23.83;;
12784;SDS011;6456;42.680;23.260;2024-02-26T08:48:44;30.40;;;23.93;;
12784;SDS011;6456;42.680;23.260;2024-02-26T08:51:11;29.80;;;22.77;;
12784;SDS011;6456;42.680;23.260;2024-02-26T08:53:42;33.93;;;23.67;;
12784;SDS011;6456;42.680;23.260;2024-02-26T08:56:09;32.10;;;24.40;;
12784;SDS011;6456;42.680;23.260;2024-02-26T08:58:43;26.33;;;20.93;;
12784;SDS011;6456;42.680;23.260;2024-02-26T09:01:11;31.17;;;23.10;;
12784;SDS011;6456;42.680;23.260;2024-02-26T09:03:39;31.40;;;21.70;;
12784;SDS011;6456;42.680;23.260;2024-02-26T09:06:06;26.77;;;20.90;;
12784;SDS011;6456;42.680;23.260;2024-02-26T09:08:33;27.33;;;22.73;;
12784;SDS011;6456;42.680;23.260;2024-02-26T09:11:01;29.47;;;23.03;;
12784;SDS011;6456;42.680;23.260;2024-02-26T09:13:29;28.13;;;21.93;;
12784;SDS011;6456;42.680;23.260;2024-02-26T09:15:58;30.97;;;21.30;;
12784;SDS011;6456;42.680;23.260;2024-02-26T09:18:26;27.63;;;21.53;;
12784;SDS011;6456;42.680;23.260;2024-02-26T09:20:54;30.80;;;21.77;;
12784;SDS011;6456;42.680;23.260;2024-02-26T09:23:24;26.43;;;21.37;;
12784;SDS011;6456;42.680;23.260;2024-02-26T09:25:52;31.43;;;20.53;;
12784;SDS011;6456;42.680;23.260;2024-02-26T09:28:19;27.20;;;21.17;;
12784;SDS011;6456;42.680;23.260;2024-02-26T09:30:46;24.87;;;20.93;;
12784;SDS011;6456;42.680;23.260;2024-02-26T09:33:16;42.37;;;21.00;;
12784;SDS011;6456;42.680;23.260;2024-02-26T09:35:44;30.73;;;21.40;;
12784;SDS011;6456;42.680;23.260;2024-02-26T09:38:14;27.37;;;20.90;;
12784;SDS011;6456;42.680;23.260;2024-02-26T09:40:41;31.17;;;20.63;;
12784;SDS011;6456;42.680;23.260;2024-02-26T09:43:08;24.23;;;19.13;;
12784;SDS011;6456;42.680;23.260;2024-02-26T09:45:41;22.80;;;18.87;;
12784;SDS011;6456;42.680;23.260;2024-02-26T09:48:09;24.27;;;19.30;;
12784;SDS011;6456;42.680;23.260;2024-02-26T09:50:41;24.93;;;20.27;;
12784;SDS011;6456;42.680;23.260;2024-02-26T09:53:13;29.73;;;20.67;;
12784;SDS011;6456;42.680;23.260;2024-02-26T09:55:52;23.30;;;18.80;;
12784;SDS011;6456;42.680;23.260;2024-02-26T09:58:19;27.00;;;19.30;;
12784;SDS011;6456;42.680;23.260;2024-02-26T10:00:50;22.63;;;18.67;;
12784;SDS011;6456;42.680;23.260;2024-02-26T10:03:24;24.87;;;16.73;;
12784;SDS011;6456;42.680;23.260;2024-02-26T10:05:58;19.63;;;7.57;;
12784;SDS011;6456;42.680;23.260;2024-02-26T10:08:28;9.90;;;5.63;;
12784;SDS011;6456;42.680;23.260;2024-02-26T10:10:56;11.93;;;6.27;;
12784;SDS011;6456;42.680;23.260;2024-02-26T10:13:23;6.30;;;5.27;;
12784;SDS011;6456;42.680;23.260;2024-02-26T10:15:50;5.63;;;4.70;;
12784;SDS011;6456;42.680;23.260;2024-02-26T10:18:17;10.97;;;5.10;;
12784;SDS011;6456;42.680;23.260;2024-02-26T10:20:52;12.80;;;5.23;;
12784;SDS011;6456;42.680;23.260;2024-02-26T10:23:30;8.37;;;4.93;;
12784;SDS011;6456;42.680;23.260;2024-02-26T10:25:57;9.13;;;5.47;;
12784;SDS011;6456;42.680;23.260;2024-02-26T10:28:27;8.53;;;5.50;;
12784;SDS011;6456;42.680;23.260;2024-02-26T10:30:59;7.40;;;5.23;;
12784;SDS011;6456;42.680;23.260;2024-02-26T10:33:27;9.50;;;4.97;;
12784;SDS011;6456;42.680;23.260;2024-02-26T10:35:54;5.77;;;4.67;;
12784;SDS011;6456;42.680;23.260;2024-02-26T10:38:22;6.33;;;4.90;;
12784;SDS011;6456;42.680;23.260;2024-02-26T10:40:49;5.10;;;4.60;;
12784;SDS011;6456;42.680;23.260;2024-02-26T10:43:16;5.37;;;4.60;;
12784;SDS011;6456;42.680;23.260;2024-02-26T10:45:44;11.97;;;5.73;;
12784;SDS011;6456;42.680;23.260;2024-02-26T10:48:13;8.23;;;5.03;;
12784;SDS011;6456;42.680;23.260;2024-02-26T10:50:41;6.40;;;5.80;;
12784;SDS011;6456;42.680;23.260;2024-02-26T10:53:12;9.60;;;4.67;;
12784;SDS011;6456;42.680;23.260;2024-02-26T10:55:45;11.17;;;5.50;;
12784;SDS011;6456;42.680;23.260;2024-02-26T10:58:15;8.60;;;5.47;;
12784;SDS011;6456;42.680;23.260;2024-02-26T11:00:43;9.87;;;4.70;;
12784;SDS011;6456;42.680;23.260;2024-02-26T11:03:12;8.17;;;4.50;;
12784;SDS011;6456;42.680;23.260;2024-02-26T11:05:46;5.33;;;4.83;;
12784;SDS011;6456;42.680;23.260;2024-02-26T11:08:15;7.03;;;5.20;;
12784;SDS011;6456;42.680;23.260;2024-02-26T11:10:46;5.27;;;4.77;;
12784;SDS011;6456;42.680;23.260;2024-02-26T11:13:16;6.03;;;5.37;;
12784;SDS011;6456;42.680;23.260;2024-02-26T11:15:45;7.60;;;5.20;;
12784;SDS011;6456;42.680;23.260;2024-02-26T11:18:14;9.27;;;5.10;;
12784;SDS011;6456;42.680;23.260;2024-02-26T11:20:41;6.90;;;4.87;;
12784;SDS011;6456;42.680;23.260;2024-02-26T11:23:10;10.20;;;5.57;;
12784;SDS011;6456;42.680;23.260;2024-02-26T11:25:41;6.83;;;5.03;;
12784;SDS011;6456;42.680;23.260;2024-02-26T11:28:12;5.50;;;5.00;;
12784;SDS011;6456;42.680;23.260;2024-02-26T11:30:43;8.57;;;4.60;;
12784;SDS011;6456;42.680;23.260;2024-02-26T11:33:14;11.03;;;4.77;;
12784;SDS011;6456;42.680;23.260;2024-02-26T11:35:45;5.50;;;5.00;;
12784;SDS011;6456;42.680;23.260;2024-02-26T11:38:17;7.10;;;5.00;;
12784;SDS011;6456;42.680;23.260;2024-02-26T11:40:46;7.17;;;4.90;;
12784;SDS011;6456;42.680;23.260;2024-02-26T11:43:17;6.50;;;4.70;;
12784;SDS011;6456;42.680;23.260;2024-02-26T11:45:47;4.77;;;4.30;;
12784;SDS011;6456;42.680;23.260;2024-02-26T11:48:22;6.80;;;4.77;;
12784;SDS011;6456;42.680;23.260;2024-02-26T11:50:50;10.70;;;5.37;;
12784;SDS011;6456;42.680;23.260;2024-02-26T11:53:25;8.03;;;5.20;;
12784;SDS011;6456;42.680;23.260;2024-02-26T11:56:13;6.27;;;4.90;;
12784;SDS011;6456;42.680;23.260;2024-02-26T11:58:49;5.23;;;4.73;;
12784;SDS011;6456;42.680;23.260;2024-02-26T12:01:38;6.03;;;4.90;;
12784;SDS011;6456;42.680;23.260;2024-02-26T12:04:12;8.93;;;5.53;;
12784;SDS011;6456;42.680;23.260;2024-02-26T12:06:41;7.03;;;4.90;;
12784;SDS011;6456;42.680;23.260;2024-02-26T12:09:09;9.90;;;4.97;;
12784;SDS011;6456;42.680;23.260;2024-02-26T12:11:38;4.73;;;4.13;;
12784;SDS011;6456;42.680;23.260;2024-02-26T12:14:08;7.37;;;4.70;;
12784;SDS011;6456;42.680;23.260;2024-02-26T12:16:36;10.90;;;4.73;;
12784;SDS011;6456;42.680;23.260;2024-02-26T12:19:05;6.90;;;4.33;;
12784;SDS011;6456;42.680;23.260;2024-02-26T12:21:34;4.90;;;4.40;;
12784;SDS011;6456;42.680;23.260;2024-02-26T12:24:07;5.27;;;3.87;;
12784;SDS011;6456;42.680;23.260;2024-02-26T12:26:36;5.70;;;4.07;;
12784;SDS011;6456;42.680;23.260;2024-02-26T12:29:04;7.70;;;4.40;;
12784;SDS011;6456;42.680;23.260;2024-02-26T12:31:32;6.53;;;4.07;;
12784;SDS011;6456;42.680;23.260;2024-02-26T12:34:02;7.20;;;4.43;;
12784;SDS011;6456;42.680;23.260;2024-02-26T12:36:29;8.23;;;4.50;;
12784;SDS011;6456;42.680;23.260;2024-02-26T12:38:57;7.07;;;4.33;;
12784;SDS011;6456;42.680;23.260;2024-02-26T12:41:25;5.80;;;3.97;;
12784;SDS011;6456;42.680;23.260;2024-02-26T12:43:54;7.27;;;4.00;;
12784;SDS011;6456;42.680;23.260;2024-02-26T12:46:23;4.40;;;3.60;;
12784;SDS011;6456;42.680;23.260;2024-02-26T12:48:52;5.73;;;4.07;;
12784;SDS011;6456;42.680;23.260;2024-02-26T12:51:22;5.30;;;3.57;;
12784;SDS011;6456;42.680;23.260;2024-02-26T12:53:54;6.03;;;4.00;;
12784;SDS011;6456;42.680;23.260;2024-02-26T12:56:24;7.20;;;4.40;;
12784;SDS011;6456;42.680;23.260;2024-02-26T12:58:59;7.00;;;4.03;;
12784;SDS011;6456;42.680;23.260;2024-02-26T13:01:27;4.20;;;3.63;;
12784;SDS011;6456;42.680;23.260;2024-02-26T13:04:01;5.53;;;4.50;;
12784;SDS011;6456;42.680;23.260;2024-02-26T13:06:34;4.70;;;3.77;;
12784;SDS011;6456;42.680;23.260;2024-02-26T13:09:04;5.23;;;4.07;;
12784;SDS011;6456;42.680;23.260;2024-02-26T13:11:31;5.20;;;3.87;;
12784;SDS011;6456;42.680;23.260;2024-02-26T13:14:05;5.53;;;3.93;;
12784;SDS011;6456;42.680;23.260;2024-02-26T13:16:38;6.33;;;3.60;;
12784;SDS011;6456;42.680;23.260;2024-02-26T13:19:11;7.70;;;3.53;;
12784;SDS011;6456;42.680;23.260;2024-02-26T13:21:40;5.87;;;3.83;;
12784;SDS011;6456;42.680;23.260;2024-02-26T13:24:08;5.53;;;3.60;;
12784;SDS011;6456;42.680;23.260;2024-02-26T13:26:39;5.67;;;3.60;;
12784;SDS011;6456;42.680;23.260;2024-02-26T13:29:09;4.77;;;3.60;;
12784;SDS011;6456;42.680;23.260;2024-02-26T13:31:47;5.27;;;3.77;;
12784;SDS011;6456;42.680;23.260;2024-02-26T13:34:24;4.80;;;3.70;;
12784;SDS011;6456;42.680;23.260;2024-02-26T13:36:52;5.67;;;3.53;;
12784;SDS011;6456;42.680;23.260;2024-02-26T13:39:23;7.63;;;3.90;;
12784;SDS011;6456;42.680;23.260;2024-02-26T13:41:51;5.87;;;3.60;;
12784;SDS011;6456;42.680;23.260;2024-02-26T13:44:18;5.50;;;3.33;;
12784;SDS011;6456;42.680;23.260;2024-02-26T13:46:46;11.33;;;4.43;;
12784;SDS011;6456;42.680;23.260;2024-02-26T13:49:14;6.60;;;3.70;;
12784;SDS011;6456;42.680;23.260;2024-02-26T13:51:43;7.37;;;3.83;;
12784;SDS011;6456;42.680;23.260;2024-02-26T13:54:10;14.37;;;4.97;;
12784;SDS011;6456;42.680;23.260;2024-02-26T13:56:39;7.53;;;4.37;;
12784;SDS011;6456;42.680;23.260;2024-02-26T13:59:06;5.13;;;3.70;;
12784;SDS011;6456;42.680;23.260;2024-02-26T14:01:33;8.70;;;4.43;;
12784;SDS011;6456;42.680;23.260;2024-02-26T14:04:00;11.30;;;4.80;;
12784;SDS011;6456;42.680;23.260;2024-02-26T14:06:29;10.50;;;5.00;;
12784;SDS011;6456;42.680;23.260;2024-02-26T14:08:58;5.53;;;4.00;;
12784;SDS011;6456;42.680;23.260;2024-02-26T14:11:26;8.47;;;4.53;;
12784;SDS011;6456;42.680;23.260;2024-02-26T14:13:54;10.23;;;4.13;;
12784;SDS011;6456;42.680;23.260;2024-02-26T14:16:21;9.33;;;4.00;;
12784;SDS011;6456;42.680;23.260;2024-02-26T14:18:48;6.67;;;3.90;;
12784;SDS011;6456;42.680;23.260;2024-02-26T14:21:16;7.60;;;4.13;;
12784;SDS011;6456;42.680;23.260;2024-02-26T14:23:43;5.27;;;3.77;;
12784;SDS011;6456;42.680;23.260;2024-02-26T14:26:14;7.80;;;3.57;;
12784;SDS011;6456;42.680;23.260;2024-02-26T14:28:42;8.53;;;3.73;;
12784;SDS011;6456;42.680;23.260;2024-02-26T14:31:09;7.80;;;3.80;;
12784;SDS011;6456;42.680;23.260;2024-02-26T14:33:37;10.27;;;4.03;;
12784;SDS011;6456;42.680;23.260;2024-02-26T14:36:06;8.13;;;3.80;;